sensor_id;sensor_type;location;lat;lon;timestamp;P1;durP1;ratioP1;P2;durP2;ratioP2
11113;SDS011;5610;52.154;9.198;2023-04-25T00:02:34;13.20;;;7.90;;
11113;SDS011;5610;52.154;9.198;2023-04-25T00:05:19;13.57;;;7.87;;
11113;SDS011;5610;52.154;9.198;2023-04-25T00:08:08;14.27;;;7.53;;
11113;SDS011;5610;52.154;9.198;2023-04-25T00:10:53;14.07;;;8.93;;
11113;SDS011;5610;52.154;9.198;2023-04-25T00:13:38;20.13;;;8.37;;
11113;SDS011;5610;52.154;9.198;2023-04-25T00:16:25;18.63;;;9.70;;
11113;SDS011;5610;52.154;9.198;2023-04-25T00:19:10;19.93;;;8.90;;
11113;SDS011;5610;52.154;9.198;2023-04-25T00:21:57;12.43;;;9.20;;
11113;SDS011;5610;52.154;9.198;2023-04-25T00:24:43;14.83;;;8.73;;
11113;SDS011;5610;52.154;9.198;2023-04-25T00:27:29;19.40;;;9.83;;
11113;SDS011;5610;52.154;9.198;2023-04-25T00:30:14;15.27;;;8.87;;
11113;SDS011;5610;52.154;9.198;2023-04-25T00:32:59;25.43;;;10.03;;
11113;SDS011;5610;52.154;9.198;2023-04-25T00:35:45;14.00;;;9.17;;
11113;SDS011;5610;52.154;9.198;2023-04-25T00:38:30;17.10;;;8.77;;
11113;SDS011;5610;52.154;9.198;2023-04-25T00:41:17;15.63;;;9.30;;
11113;SDS011;5610;52.154;9.198;2023-04-25T00:44:04;12.80;;;9.83;;
11113;SDS011;5610;52.154;9.198;2023-04-25T00:46:51;14.10;;;9.17;;
11113;SDS011;5610;52.154;9.198;2023-04-25T00:49:38;17.60;;;9.97;;
11113;SDS011;5610;52.154;9.198;2023-04-25T00:52:23;15.50;;;9.20;;
11113;SDS011;5610;52.154;9.198;2023-04-25T00:55:09;16.00;;;10.43;;
11113;SDS011;5610;52.154;9.198;2023-04-25T00:57:56;15.60;;;9.40;;
11113;SDS011;5610;52.154;9.198;2023-04-25T01:00:41;15.23;;;9.13;;
11113;SDS011;5610;52.154;9.198;2023-04-25T01:03:27;13.20;;;9.07;;
11113;SDS011;5610;52.154;9.198;2023-04-25T01:06:13;18.00;;;8.87;;
11113;SDS011;5610;52.154;9.198;2023-04-25T01:08:58;16.87;;;9.27;;
11113;SDS011;5610;52.154;9.198;2023-04-25T01:11:44;18.90;;;10.00;;
11113;SDS011;5610;52.154;9.198;2023-04-25T01:14:30;18.13;;;9.90;;
11113;SDS011;5610;52.154;9.198;2023-04-25T01:17:15;16.57;;;9.33;;
11113;SDS011;5610;52.154;9.198;2023-04-25T01:20:03;19.13;;;10.53;;
11113;SDS011;5610;52.154;9.198;2023-04-25T01:22:50;15.93;;;10.20;;
11113;SDS011;5610;52.154;9.198;2023-04-25T01:25:36;13.03;;;9.80;;
11113;SDS011;5610;52.154;9.198;2023-04-25T01:28:25;11.87;;;9.50;;
11113;SDS011;5610;52.154;9.198;2023-04-25T01:31:11;18.60;;;9.53;;
11113;SDS011;5610;52.154;9.198;2023-04-25T01:33:57;18.83;;;9.50;;
11113;SDS011;5610;52.154;9.198;2023-04-25T01:36:42;14.50;;;9.83;;
11113;SDS011;5610;52.154;9.198;2023-04-25T01:39:29;19.80;;;9.87;;
11113;SDS011;5610;52.154;9.198;2023-04-25T01:42:15;13.90;;;10.40;;
11113;SDS011;5610;52.154;9.198;2023-04-25T01:45:00;16.60;;;10.30;;
11113;SDS011;5610;52.154;9.198;2023-04-25T01:47:45;17.30;;;9.53;;
11113;SDS011;5610;52.154;9.198;2023-04-25T01:50:34;15.47;;;10.00;;
11113;SDS011;5610;52.154;9.198;2023-04-25T01:53:19;16.40;;;9.10;;
11113;SDS011;5610;52.154;9.198;2023-04-25T01:56:07;14.40;;;8.80;;
11113;SDS011;5610;52.154;9.198;2023-04-25T01:58:53;16.63;;;9.93;;
11113;SDS011;5610;52.154;9.198;2023-04-25T02:01:38;15.30;;;9.90;;
11113;SDS011;5610;52.154;9.198;2023-04-25T02:04:34;16.60;;;9.87;;
11113;SDS011;5610;52.154;9.198;2023-04-25T02:07:20;10.87;;;8.60;;
11113;SDS011;5610;52.154;9.198;2023-04-25T02:10:09;13.67;;;8.90;;
11113;SDS011;5610;52.154;9.198;2023-04-25T02:13:08;11.47;;;8.10;;
11113;SDS011;5610;52.154;9.198;2023-04-25T02:16:14;10.83;;;7.90;;
11113;SDS011;5610;52.154;9.198;2023-04-25T02:18:59;13.37;;;7.77;;
11113;SDS011;5610;52.154;9.198;2023-04-25T02:21:44;12.60;;;7.47;;
11113;SDS011;5610;52.154;9.198;2023-04-25T02:24:30;9.07;;;6.97;;
11113;SDS011;5610;52.154;9.198;2023-04-25T02:27:15;13.50;;;8.57;;
11113;SDS011;5610;52.154;9.198;2023-04-25T02:30:02;15.10;;;8.40;;
11113;SDS011;5610;52.154;9.198;2023-04-25T02:32:50;14.10;;;7.50;;
11113;SDS011;5610;52.154;9.198;2023-04-25T02:35:36;16.83;;;7.73;;
11113;SDS011;5610;52.154;9.198;2023-04-25T02:38:21;14.33;;;7.00;;
11113;SDS011;5610;52.154;9.198;2023-04-25T02:41:06;24.60;;;7.70;;
11113;SDS011;5610;52.154;9.198;2023-04-25T02:43:52;21.10;;;6.90;;
11113;SDS011;5610;52.154;9.198;2023-04-25T02:46:38;14.60;;;6.57;;
11113;SDS011;5610;52.154;9.198;2023-04-25T02:49:23;19.13;;;6.80;;
11113;SDS011;5610;52.154;9.198;2023-04-25T02:52:09;18.40;;;6.13;;
11113;SDS011;5610;52.154;9.198;2023-04-25T02:54:54;13.03;;;6.23;;
11113;SDS011;5610;52.154;9.198;2023-04-25T02:57:40;15.90;;;7.23;;
11113;SDS011;5610;52.154;9.198;2023-04-25T03:00:28;19.83;;;4.90;;
11113;SDS011;5610;52.154;9.198;2023-04-25T03:03:14;17.00;;;6.20;;
11113;SDS011;5610;52.154;9.198;2023-04-25T03:06:01;18.90;;;6.30;;
11113;SDS011;5610;52.154;9.198;2023-04-25T03:08:50;21.50;;;6.10;;
11113;SDS011;5610;52.154;9.198;2023-04-25T03:11:35;16.43;;;6.30;;
11113;SDS011;5610;52.154;9.198;2023-04-25T03:14:20;19.77;;;6.43;;
11113;SDS011;5610;52.154;9.198;2023-04-25T03:17:05;11.70;;;6.00;;
11113;SDS011;5610;52.154;9.198;2023-04-25T03:19:54;19.50;;;6.60;;
11113;SDS011;5610;52.154;9.198;2023-04-25T03:22:39;20.13;;;6.87;;
11113;SDS011;5610;52.154;9.198;2023-04-25T03:25:25;13.20;;;5.97;;
11113;SDS011;5610;52.154;9.198;2023-04-25T03:28:11;21.03;;;5.87;;
11113;SDS011;5610;52.154;9.198;2023-04-25T03:30:56;16.27;;;5.57;;
11113;SDS011;5610;52.154;9.198;2023-04-25T03:33:41;14.17;;;5.73;;
11113;SDS011;5610;52.154;9.198;2023-04-25T03:36:28;20.63;;;6.50;;
11113;SDS011;5610;52.154;9.198;2023-04-25T03:39:14;22.70;;;7.40;;
11113;SDS011;5610;52.154;9.198;2023-04-25T03:42:05;21.77;;;7.20;;
11113;SDS011;5610;52.154;9.198;2023-04-25T03:44:51;16.53;;;7.17;;
11113;SDS011;5610;52.154;9.198;2023-04-25T03:47:36;25.47;;;7.73;;
11113;SDS011;5610;52.154;9.198;2023-04-25T03:50:22;15.40;;;5.90;;
11113;SDS011;5610;52.154;9.198;2023-04-25T03:53:09;17.47;;;6.40;;
11113;SDS011;5610;52.154;9.198;2023-04-25T03:56:17;19.50;;;6.10;;
11113;SDS011;5610;52.154;9.198;2023-04-25T03:59:05;26.37;;;6.50;;
11113;SDS011;5610;52.154;9.198;2023-04-25T04:01:50;13.73;;;5.73;;
11113;SDS011;5610;52.154;9.198;2023-04-25T04:04:36;19.17;;;7.10;;
11113;SDS011;5610;52.154;9.198;2023-04-25T04:07:21;16.87;;;5.63;;
11113;SDS011;5610;52.154;9.198;2023-04-25T04:10:12;17.63;;;6.00;;
11113;SDS011;5610;52.154;9.198;2023-04-25T04:12:58;19.33;;;6.10;;
11113;SDS011;5610;52.154;9.198;2023-04-25T04:15:43;20.77;;;5.80;;
11113;SDS011;5610;52.154;9.198;2023-04-25T04:18:29;22.03;;;7.67;;
11113;SDS011;5610;52.154;9.198;2023-04-25T04:21:15;21.13;;;7.10;;
11113;SDS011;5610;52.154;9.198;2023-04-25T04:24:00;17.53;;;6.20;;
11113;SDS011;5610;52.154;9.198;2023-04-25T04:26:50;16.93;;;6.43;;
11113;SDS011;5610;52.154;9.198;2023-04-25T04:30:11;16.87;;;7.47;;
11113;SDS011;5610;52.154;9.198;2023-04-25T04:33:10;18.87;;;7.13;;
11113;SDS011;5610;52.154;9.198;2023-04-25T04:35:56;14.07;;;6.03;;
11113;SDS011;5610;52.154;9.198;2023-04-25T04:38:42;17.53;;;7.00;;
11113;SDS011;5610;52.154;9.198;2023-04-25T04:41:36;22.13;;;7.10;;
11113;SDS011;5610;52.154;9.198;2023-04-25T04:44:47;16.53;;;6.47;;
11113;SDS011;5610;52.154;9.198;2023-04-25T04:48:01;22.43;;;6.90;;
11113;SDS011;5610;52.154;9.198;2023-04-25T04:51:06;19.03;;;6.87;;
11113;SDS011;5610;52.154;9.198;2023-04-25T04:54:13;13.63;;;5.93;;
11113;SDS011;5610;52.154;9.198;2023-04-25T04:57:11;13.37;;;5.60;;
11113;SDS011;5610;52.154;9.198;2023-04-25T05:00:14;18.07;;;5.90;;
11113;SDS011;5610;52.154;9.198;2023-04-25T05:03:29;12.37;;;6.00;;
11113;SDS011;5610;52.154;9.198;2023-04-25T05:06:30;19.40;;;6.30;;
11113;SDS011;5610;52.154;9.198;2023-04-25T05:09:33;23.53;;;6.17;;
11113;SDS011;5610;52.154;9.198;2023-04-25T05:12:25;14.43;;;5.57;;
11113;SDS011;5610;52.154;9.198;2023-04-25T05:15:15;20.73;;;6.10;;
11113;SDS011;5610;52.154;9.198;2023-04-25T05:18:16;15.77;;;5.87;;
11113;SDS011;5610;52.154;9.198;2023-04-25T05:21:25;15.10;;;5.70;;
11113;SDS011;5610;52.154;9.198;2023-04-25T05:24:43;22.13;;;6.87;;
11113;SDS011;5610;52.154;9.198;2023-04-25T05:27:41;18.03;;;5.43;;
11113;SDS011;5610;52.154;9.198;2023-04-25T05:30:43;15.40;;;5.23;;
11113;SDS011;5610;52.154;9.198;2023-04-25T05:33:38;14.80;;;4.93;;
11113;SDS011;5610;52.154;9.198;2023-04-25T05:36:23;19.03;;;5.20;;
11113;SDS011;5610;52.154;9.198;2023-04-25T05:39:09;15.97;;;6.27;;
11113;SDS011;5610;52.154;9.198;2023-04-25T05:42:20;14.93;;;5.53;;
11113;SDS011;5610;52.154;9.198;2023-04-25T05:45:25;14.33;;;5.77;;
11113;SDS011;5610;52.154;9.198;2023-04-25T05:48:23;16.27;;;5.67;;
11113;SDS011;5610;52.154;9.198;2023-04-25T05:51:38;16.00;;;6.03;;
11113;SDS011;5610;52.154;9.198;2023-04-25T05:54:38;25.00;;;7.03;;
11113;SDS011;5610;52.154;9.198;2023-04-25T05:57:23;14.33;;;6.30;;
11113;SDS011;5610;52.154;9.198;2023-04-25T06:00:12;18.57;;;5.63;;
11113;SDS011;5610;52.154;9.198;2023-04-25T06:03:00;17.20;;;6.13;;
11113;SDS011;5610;52.154;9.198;2023-04-25T06:05:47;15.40;;;5.50;;
11113;SDS011;5610;52.154;9.198;2023-04-25T06:11:17;15.67;;;4.63;;
11113;SDS011;5610;52.154;9.198;2023-04-25T06:14:03;16.93;;;5.33;;
11113;SDS011;5610;52.154;9.198;2023-04-25T06:16:51;16.37;;;5.57;;
11113;SDS011;5610;52.154;9.198;2023-04-25T06:19:36;12.43;;;4.90;;
11113;SDS011;5610;52.154;9.198;2023-04-25T06:22:23;18.60;;;5.67;;
11113;SDS011;5610;52.154;9.198;2023-04-25T06:25:08;21.23;;;6.30;;
11113;SDS011;5610;52.154;9.198;2023-04-25T06:27:53;16.57;;;5.37;;
11113;SDS011;5610;52.154;9.198;2023-04-25T06:30:39;13.47;;;4.77;;
11113;SDS011;5610;52.154;9.198;2023-04-25T06:33:29;16.57;;;6.10;;
11113;SDS011;5610;52.154;9.198;2023-04-25T06:36:14;11.90;;;4.90;;
11113;SDS011;5610;52.154;9.198;2023-04-25T06:39:02;11.07;;;4.70;;
11113;SDS011;5610;52.154;9.198;2023-04-25T06:41:48;17.23;;;5.13;;
11113;SDS011;5610;52.154;9.198;2023-04-25T06:44:53;13.40;;;4.73;;
11113;SDS011;5610;52.154;9.198;2023-04-25T06:47:39;11.23;;;4.60;;
11113;SDS011;5610;52.154;9.198;2023-04-25T06:50:24;10.80;;;4.97;;
11113;SDS011;5610;52.154;9.198;2023-04-25T06:53:09;13.23;;;4.97;;
11113;SDS011;5610;52.154;9.198;2023-04-25T06:55:58;12.20;;;5.20;;
11113;SDS011;5610;52.154;9.198;2023-04-25T06:58:48;17.23;;;5.60;;
11113;SDS011;5610;52.154;9.198;2023-04-25T07:01:41;10.40;;;4.43;;
11113;SDS011;5610;52.154;9.198;2023-04-25T07:04:32;15.60;;;5.00;;
11113;SDS011;5610;52.154;9.198;2023-04-25T07:07:19;9.00;;;3.37;;
11113;SDS011;5610;52.154;9.198;2023-04-25T07:10:11;14.80;;;4.10;;
11113;SDS011;5610;52.154;9.198;2023-04-25T07:12:58;14.63;;;3.83;;
11113;SDS011;5610;52.154;9.198;2023-04-25T07:15:43;10.30;;;4.00;;
11113;SDS011;5610;52.154;9.198;2023-04-25T07:18:29;18.70;;;4.40;;
11113;SDS011;5610;52.154;9.198;2023-04-25T07:21:16;11.87;;;4.40;;
11113;SDS011;5610;52.154;9.198;2023-04-25T07:24:03;14.33;;;3.80;;
11113;SDS011;5610;52.154;9.198;2023-04-25T07:26:53;10.60;;;3.60;;
11113;SDS011;5610;52.154;9.198;2023-04-25T07:29:53;16.10;;;3.80;;
11113;SDS011;5610;52.154;9.198;2023-04-25T07:32:40;9.33;;;4.30;;
11113;SDS011;5610;52.154;9.198;2023-04-25T07:35:25;11.83;;;3.70;;
11113;SDS011;5610;52.154;9.198;2023-04-25T07:38:10;11.27;;;3.87;;
11113;SDS011;5610;52.154;9.198;2023-04-25T07:40:57;14.67;;;4.40;;
11113;SDS011;5610;52.154;9.198;2023-04-25T07:43:42;10.57;;;4.17;;
11113;SDS011;5610;52.154;9.198;2023-04-25T07:46:28;11.30;;;4.23;;
11113;SDS011;5610;52.154;9.198;2023-04-25T07:49:14;11.17;;;3.57;;
11113;SDS011;5610;52.154;9.198;2023-04-25T07:52:01;16.13;;;4.40;;
11113;SDS011;5610;52.154;9.198;2023-04-25T07:54:47;9.00;;;2.80;;
11113;SDS011;5610;52.154;9.198;2023-04-25T07:57:38;8.90;;;3.10;;
11113;SDS011;5610;52.154;9.198;2023-04-25T08:00:24;10.90;;;3.30;;
11113;SDS011;5610;52.154;9.198;2023-04-25T08:03:22;10.43;;;4.07;;
11113;SDS011;5610;52.154;9.198;2023-04-25T08:06:07;10.73;;;3.80;;
11113;SDS011;5610;52.154;9.198;2023-04-25T08:09:01;11.57;;;3.30;;
11113;SDS011;5610;52.154;9.198;2023-04-25T08:11:54;7.43;;;3.07;;
11113;SDS011;5610;52.154;9.198;2023-04-25T08:14:44;6.37;;;3.17;;
11113;SDS011;5610;52.154;9.198;2023-04-25T08:17:30;8.40;;;3.37;;
11113;SDS011;5610;52.154;9.198;2023-04-25T08:20:17;11.97;;;4.07;;
11113;SDS011;5610;52.154;9.198;2023-04-25T08:23:03;11.27;;;3.40;;
11113;SDS011;5610;52.154;9.198;2023-04-25T08:26:08;10.00;;;3.10;;
11113;SDS011;5610;52.154;9.198;2023-04-25T08:28:55;9.70;;;3.20;;
11113;SDS011;5610;52.154;9.198;2023-04-25T08:31:40;9.27;;;3.27;;
11113;SDS011;5610;52.154;9.198;2023-04-25T08:34:27;11.33;;;3.60;;
11113;SDS011;5610;52.154;9.198;2023-04-25T08:37:14;12.27;;;3.97;;
11113;SDS011;5610;52.154;9.198;2023-04-25T08:40:14;14.00;;;3.83;;
11113;SDS011;5610;52.154;9.198;2023-04-25T08:42:59;8.83;;;3.27;;
11113;SDS011;5610;52.154;9.198;2023-04-25T08:45:47;7.93;;;3.40;;
11113;SDS011;5610;52.154;9.198;2023-04-25T08:48:44;13.63;;;3.70;;
11113;SDS011;5610;52.154;9.198;2023-04-25T08:51:30;10.33;;;3.63;;
11113;SDS011;5610;52.154;9.198;2023-04-25T08:54:20;9.87;;;3.40;;
11113;SDS011;5610;52.154;9.198;2023-04-25T08:57:07;9.43;;;3.20;;
11113;SDS011;5610;52.154;9.198;2023-04-25T08:59:52;12.03;;;3.33;;
11113;SDS011;5610;52.154;9.198;2023-04-25T09:02:40;7.33;;;2.77;;
11113;SDS011;5610;52.154;9.198;2023-04-25T09:05:28;7.90;;;3.17;;
11113;SDS011;5610;52.154;9.198;2023-04-25T09:08:13;7.63;;;3.10;;
11113;SDS011;5610;52.154;9.198;2023-04-25T09:11:01;10.17;;;3.43;;
11113;SDS011;5610;52.154;9.198;2023-04-25T09:13:47;8.50;;;2.43;;
11113;SDS011;5610;52.154;9.198;2023-04-25T09:16:57;7.27;;;2.50;;
11113;SDS011;5610;52.154;9.198;2023-04-25T09:20:13;6.83;;;3.03;;
11113;SDS011;5610;52.154;9.198;2023-04-25T09:23:02;7.47;;;2.63;;
11113;SDS011;5610;52.154;9.198;2023-04-25T09:25:50;5.60;;;2.53;;
11113;SDS011;5610;52.154;9.198;2023-04-25T09:28:39;8.10;;;2.87;;
11113;SDS011;5610;52.154;9.198;2023-04-25T09:31:27;6.60;;;2.60;;
11113;SDS011;5610;52.154;9.198;2023-04-25T09:34:17;9.07;;;3.07;;
11113;SDS011;5610;52.154;9.198;2023-04-25T09:37:10;8.93;;;2.90;;
11113;SDS011;5610;52.154;9.198;2023-04-25T09:40:14;4.00;;;1.93;;
11113;SDS011;5610;52.154;9.198;2023-04-25T09:43:18;7.00;;;2.27;;
11113;SDS011;5610;52.154;9.198;2023-04-25T09:46:08;5.77;;;2.43;;
11113;SDS011;5610;52.154;9.198;2023-04-25T09:48:58;5.13;;;2.10;;
11113;SDS011;5610;52.154;9.198;2023-04-25T09:51:54;6.57;;;2.27;;
11113;SDS011;5610;52.154;9.198;2023-04-25T09:54:40;7.40;;;2.40;;
11113;SDS011;5610;52.154;9.198;2023-04-25T09:57:30;5.67;;;2.57;;
11113;SDS011;5610;52.154;9.198;2023-04-25T10:00:16;7.33;;;2.63;;
11113;SDS011;5610;52.154;9.198;2023-04-25T10:03:04;6.27;;;2.53;;
11113;SDS011;5610;52.154;9.198;2023-04-25T10:06:11;6.33;;;2.50;;
11113;SDS011;5610;52.154;9.198;2023-04-25T10:08:58;6.97;;;2.63;;
11113;SDS011;5610;52.154;9.198;2023-04-25T10:11:44;13.63;;;3.37;;
11113;SDS011;5610;52.154;9.198;2023-04-25T10:14:31;8.73;;;2.70;;
11113;SDS011;5610;52.154;9.198;2023-04-25T10:17:17;8.20;;;2.23;;
11113;SDS011;5610;52.154;9.198;2023-04-25T10:20:06;5.80;;;2.33;;
11113;SDS011;5610;52.154;9.198;2023-04-25T10:22:54;5.37;;;2.23;;
11113;SDS011;5610;52.154;9.198;2023-04-25T10:25:43;5.00;;;2.03;;
11113;SDS011;5610;52.154;9.198;2023-04-25T10:28:29;5.60;;;1.63;;
11113;SDS011;5610;52.154;9.198;2023-04-25T10:31:14;4.23;;;1.67;;
11113;SDS011;5610;52.154;9.198;2023-04-25T10:34:01;2.07;;;1.33;;
11113;SDS011;5610;52.154;9.198;2023-04-25T10:36:50;4.27;;;1.83;;
11113;SDS011;5610;52.154;9.198;2023-04-25T10:39:38;3.77;;;1.67;;
11113;SDS011;5610;52.154;9.198;2023-04-25T10:42:23;6.83;;;2.10;;
11113;SDS011;5610;52.154;9.198;2023-04-25T10:45:11;5.83;;;1.47;;
11113;SDS011;5610;52.154;9.198;2023-04-25T10:47:56;4.63;;;2.30;;
11113;SDS011;5610;52.154;9.198;2023-04-25T10:50:41;3.73;;;1.37;;
11113;SDS011;5610;52.154;9.198;2023-04-25T10:53:27;9.37;;;2.37;;
11113;SDS011;5610;52.154;9.198;2023-04-25T10:56:17;5.73;;;1.93;;
11113;SDS011;5610;52.154;9.198;2023-04-25T10:59:05;6.23;;;2.10;;
11113;SDS011;5610;52.154;9.198;2023-04-25T11:01:52;5.33;;;1.90;;
11113;SDS011;5610;52.154;9.198;2023-04-25T11:04:38;3.90;;;1.80;;
11113;SDS011;5610;52.154;9.198;2023-04-25T11:07:26;5.47;;;1.70;;
11113;SDS011;5610;52.154;9.198;2023-04-25T11:10:19;5.20;;;1.80;;
11113;SDS011;5610;52.154;9.198;2023-04-25T11:13:05;2.43;;;1.70;;
11113;SDS011;5610;52.154;9.198;2023-04-25T11:15:51;7.07;;;1.80;;
11113;SDS011;5610;52.154;9.198;2023-04-25T11:18:36;4.73;;;2.13;;
11113;SDS011;5610;52.154;9.198;2023-04-25T11:21:22;5.87;;;2.47;;
11113;SDS011;5610;52.154;9.198;2023-04-25T11:24:08;5.83;;;2.20;;
11113;SDS011;5610;52.154;9.198;2023-04-25T11:26:54;8.57;;;2.30;;
11113;SDS011;5610;52.154;9.198;2023-04-25T11:29:40;8.07;;;1.93;;
11113;SDS011;5610;52.154;9.198;2023-04-25T11:32:25;6.87;;;1.90;;
11113;SDS011;5610;52.154;9.198;2023-04-25T11:35:11;8.80;;;2.37;;
11113;SDS011;5610;52.154;9.198;2023-04-25T11:37:56;4.63;;;1.80;;
11113;SDS011;5610;52.154;9.198;2023-04-25T11:40:41;4.53;;;1.70;;
11113;SDS011;5610;52.154;9.198;2023-04-25T11:43:28;3.43;;;1.40;;
11113;SDS011;5610;52.154;9.198;2023-04-25T11:46:13;3.97;;;1.73;;
11113;SDS011;5610;52.154;9.198;2023-04-25T11:48:58;3.20;;;1.60;;
11113;SDS011;5610;52.154;9.198;2023-04-25T11:51:44;5.87;;;1.83;;
11113;SDS011;5610;52.154;9.198;2023-04-25T11:54:31;4.33;;;1.70;;
11113;SDS011;5610;52.154;9.198;2023-04-25T11:57:18;5.27;;;2.47;;
11113;SDS011;5610;52.154;9.198;2023-04-25T12:00:12;4.10;;;1.80;;
11113;SDS011;5610;52.154;9.198;2023-04-25T12:02:59;5.60;;;1.80;;
11113;SDS011;5610;52.154;9.198;2023-04-25T12:05:46;5.73;;;2.30;;
11113;SDS011;5610;52.154;9.198;2023-04-25T12:08:31;5.80;;;1.97;;
11113;SDS011;5610;52.154;9.198;2023-04-25T12:11:20;4.63;;;1.80;;
11113;SDS011;5610;52.154;9.198;2023-04-25T12:14:05;2.87;;;1.40;;
11113;SDS011;5610;52.154;9.198;2023-04-25T12:16:52;2.83;;;1.40;;
11113;SDS011;5610;52.154;9.198;2023-04-25T12:19:39;6.17;;;4.40;;
11113;SDS011;5610;52.154;9.198;2023-04-25T12:22:25;2.37;;;1.53;;
11113;SDS011;5610;52.154;9.198;2023-04-25T12:25:10;5.17;;;4.27;;
11113;SDS011;5610;52.154;9.198;2023-04-25T12:28:08;4.50;;;1.43;;
11113;SDS011;5610;52.154;9.198;2023-04-25T12:30:55;5.90;;;4.13;;
11113;SDS011;5610;52.154;9.198;2023-04-25T12:33:42;3.40;;;1.50;;
11113;SDS011;5610;52.154;9.198;2023-04-25T12:36:31;3.67;;;1.80;;
11113;SDS011;5610;52.154;9.198;2023-04-25T12:39:16;3.30;;;2.17;;
11113;SDS011;5610;52.154;9.198;2023-04-25T12:42:02;2.83;;;1.40;;
11113;SDS011;5610;52.154;9.198;2023-04-25T12:44:47;6.50;;;2.20;;
11113;SDS011;5610;52.154;9.198;2023-04-25T12:47:32;1.83;;;1.73;;
11113;SDS011;5610;52.154;9.198;2023-04-25T12:50:20;4.90;;;2.57;;
11113;SDS011;5610;52.154;9.198;2023-04-25T12:53:05;3.40;;;3.10;;
11113;SDS011;5610;52.154;9.198;2023-04-25T12:55:50;7.20;;;4.43;;
11113;SDS011;5610;52.154;9.198;2023-04-25T12:58:35;2.50;;;1.47;;
11113;SDS011;5610;52.154;9.198;2023-04-25T13:01:21;5.97;;;1.73;;
11113;SDS011;5610;52.154;9.198;2023-04-25T13:04:06;4.33;;;1.60;;
11113;SDS011;5610;52.154;9.198;2023-04-25T13:06:52;2.07;;;1.60;;
11113;SDS011;5610;52.154;9.198;2023-04-25T13:09:38;3.53;;;1.60;;
11113;SDS011;5610;52.154;9.198;2023-04-25T13:12:23;4.60;;;1.47;;
11113;SDS011;5610;52.154;9.198;2023-04-25T13:15:09;2.43;;;1.37;;
11113;SDS011;5610;52.154;9.198;2023-04-25T13:17:55;4.40;;;1.43;;
11113;SDS011;5610;52.154;9.198;2023-04-25T13:20:40;5.07;;;1.90;;
11113;SDS011;5610;52.154;9.198;2023-04-25T13:23:27;3.07;;;1.20;;
11113;SDS011;5610;52.154;9.198;2023-04-25T13:26:13;4.67;;;1.90;;
11113;SDS011;5610;52.154;9.198;2023-04-25T13:28:59;2.60;;;1.50;;
11113;SDS011;5610;52.154;9.198;2023-04-25T13:31:47;5.07;;;1.67;;
11113;SDS011;5610;52.154;9.198;2023-04-25T13:34:32;2.73;;;1.63;;
11113;SDS011;5610;52.154;9.198;2023-04-25T13:37:17;6.00;;;1.50;;
11113;SDS011;5610;52.154;9.198;2023-04-25T13:40:05;2.80;;;1.50;;
11113;SDS011;5610;52.154;9.198;2023-04-25T13:42:53;1.50;;;0.93;;
11113;SDS011;5610;52.154;9.198;2023-04-25T13:45:40;2.90;;;1.53;;
11113;SDS011;5610;52.154;9.198;2023-04-25T13:48:25;2.23;;;1.33;;
11113;SDS011;5610;52.154;9.198;2023-04-25T13:51:10;4.83;;;1.47;;
11113;SDS011;5610;52.154;9.198;2023-04-25T13:53:55;2.13;;;1.00;;
11113;SDS011;5610;52.154;9.198;2023-04-25T13:56:42;2.17;;;1.20;;
11113;SDS011;5610;52.154;9.198;2023-04-25T13:59:27;2.53;;;1.20;;
11113;SDS011;5610;52.154;9.198;2023-04-25T14:02:13;2.90;;;1.30;;
11113;SDS011;5610;52.154;9.198;2023-04-25T14:04:58;2.97;;;1.37;;
11113;SDS011;5610;52.154;9.198;2023-04-25T14:07:43;3.03;;;1.40;;
11113;SDS011;5610;52.154;9.198;2023-04-25T14:10:29;2.83;;;1.40;;
11113;SDS011;5610;52.154;9.198;2023-04-25T14:13:16;2.20;;;1.33;;
11113;SDS011;5610;52.154;9.198;2023-04-25T14:16:01;3.67;;;1.30;;
11113;SDS011;5610;52.154;9.198;2023-04-25T14:18:46;4.30;;;1.40;;
11113;SDS011;5610;52.154;9.198;2023-04-25T14:21:31;3.20;;;2.03;;
11113;SDS011;5610;52.154;9.198;2023-04-25T14:24:17;3.33;;;1.70;;
11113;SDS011;5610;52.154;9.198;2023-04-25T14:27:02;3.20;;;1.50;;
11113;SDS011;5610;52.154;9.198;2023-04-25T14:29:49;4.90;;;1.73;;
11113;SDS011;5610;52.154;9.198;2023-04-25T14:32:34;3.30;;;1.70;;
11113;SDS011;5610;52.154;9.198;2023-04-25T14:35:20;4.50;;;1.50;;
11113;SDS011;5610;52.154;9.198;2023-04-25T14:38:05;3.20;;;1.70;;
11113;SDS011;5610;52.154;9.198;2023-04-25T14:40:51;3.20;;;1.63;;
11113;SDS011;5610;52.154;9.198;2023-04-25T14:43:37;2.40;;;1.77;;
11113;SDS011;5610;52.154;9.198;2023-04-25T14:46:24;2.20;;;1.30;;
11113;SDS011;5610;52.154;9.198;2023-04-25T14:49:10;2.97;;;1.57;;
11113;SDS011;5610;52.154;9.198;2023-04-25T14:51:56;2.20;;;1.47;;
11113;SDS011;5610;52.154;9.198;2023-04-25T14:54:40;3.57;;;1.83;;
11113;SDS011;5610;52.154;9.198;2023-04-25T14:57:25;3.87;;;1.70;;
11113;SDS011;5610;52.154;9.198;2023-04-25T15:00:11;2.83;;;1.87;;
11113;SDS011;5610;52.154;9.198;2023-04-25T15:03:01;3.00;;;1.67;;
11113;SDS011;5610;52.154;9.198;2023-04-25T15:05:46;3.33;;;1.73;;
11113;SDS011;5610;52.154;9.198;2023-04-25T15:08:32;2.63;;;1.50;;
11113;SDS011;5610;52.154;9.198;2023-04-25T15:11:18;5.17;;;1.53;;
11113;SDS011;5610;52.154;9.198;2023-04-25T15:14:04;4.57;;;1.63;;
11113;SDS011;5610;52.154;9.198;2023-04-25T15:16:49;2.50;;;1.63;;
11113;SDS011;5610;52.154;9.198;2023-04-25T15:19:36;4.63;;;1.67;;
11113;SDS011;5610;52.154;9.198;2023-04-25T15:22:21;2.43;;;1.70;;
11113;SDS011;5610;52.154;9.198;2023-04-25T15:25:07;4.73;;;1.30;;
11113;SDS011;5610;52.154;9.198;2023-04-25T15:27:52;3.80;;;1.80;;
11113;SDS011;5610;52.154;9.198;2023-04-25T15:30:38;3.10;;;1.53;;
11113;SDS011;5610;52.154;9.198;2023-04-25T15:33:23;2.57;;;1.73;;
11113;SDS011;5610;52.154;9.198;2023-04-25T15:36:10;3.90;;;1.47;;
11113;SDS011;5610;52.154;9.198;2023-04-25T15:38:55;3.50;;;1.87;;
11113;SDS011;5610;52.154;9.198;2023-04-25T15:41:40;6.07;;;2.57;;
11113;SDS011;5610;52.154;9.198;2023-04-25T15:44:26;5.13;;;2.77;;
11113;SDS011;5610;52.154;9.198;2023-04-25T15:47:11;9.33;;;3.30;;
11113;SDS011;5610;52.154;9.198;2023-04-25T15:49:57;3.93;;;1.90;;
11113;SDS011;5610;52.154;9.198;2023-04-25T15:52:43;7.80;;;1.90;;
11113;SDS011;5610;52.154;9.198;2023-04-25T15:55:30;5.67;;;2.90;;
11113;SDS011;5610;52.154;9.198;2023-04-25T15:58:16;6.53;;;2.30;;
11113;SDS011;5610;52.154;9.198;2023-04-25T16:01:02;4.60;;;2.43;;
11113;SDS011;5610;52.154;9.198;2023-04-25T16:03:49;2.90;;;2.33;;
11113;SDS011;5610;52.154;9.198;2023-04-25T16:06:34;3.67;;;2.03;;
11113;SDS011;5610;52.154;9.198;2023-04-25T16:09:20;4.63;;;1.53;;
11113;SDS011;5610;52.154;9.198;2023-04-25T16:12:07;3.70;;;1.47;;
11113;SDS011;5610;52.154;9.198;2023-04-25T16:14:53;2.63;;;1.60;;
11113;SDS011;5610;52.154;9.198;2023-04-25T16:17:40;3.00;;;2.30;;
11113;SDS011;5610;52.154;9.198;2023-04-25T16:20:26;1.97;;;1.40;;
11113;SDS011;5610;52.154;9.198;2023-04-25T16:23:11;3.97;;;1.60;;
11113;SDS011;5610;52.154;9.198;2023-04-25T16:25:58;3.83;;;1.47;;
11113;SDS011;5610;52.154;9.198;2023-04-25T16:28:43;3.13;;;1.37;;
11113;SDS011;5610;52.154;9.198;2023-04-25T16:31:28;6.70;;;1.63;;
11113;SDS011;5610;52.154;9.198;2023-04-25T16:34:13;4.03;;;1.60;;
11113;SDS011;5610;52.154;9.198;2023-04-25T16:36:59;3.87;;;1.40;;
11113;SDS011;5610;52.154;9.198;2023-04-25T16:39:45;2.30;;;1.50;;
11113;SDS011;5610;52.154;9.198;2023-04-25T16:42:32;4.30;;;1.83;;
11113;SDS011;5610;52.154;9.198;2023-04-25T16:45:17;5.00;;;1.97;;
11113;SDS011;5610;52.154;9.198;2023-04-25T16:48:03;3.80;;;1.70;;
11113;SDS011;5610;52.154;9.198;2023-04-25T16:50:48;3.87;;;1.57;;
11113;SDS011;5610;52.154;9.198;2023-04-25T16:53:34;2.47;;;1.60;;
11113;SDS011;5610;52.154;9.198;2023-04-25T16:56:19;3.23;;;1.40;;
11113;SDS011;5610;52.154;9.198;2023-04-25T16:59:06;2.00;;;1.00;;
11113;SDS011;5610;52.154;9.198;2023-04-25T17:01:52;2.63;;;1.67;;
11113;SDS011;5610;52.154;9.198;2023-04-25T17:04:37;5.40;;;1.60;;
11113;SDS011;5610;52.154;9.198;2023-04-25T17:07:23;4.00;;;1.40;;